createdAt,value
2022-11-29T00:01:07.994Z,33.20
2022-11-29T00:03:37.549Z,32.40
2022-11-29T00:06:06.113Z,33.03
2022-11-29T00:08:33.974Z,34.17
2022-11-29T00:11:04.574Z,34.70
2022-11-29T00:13:32.346Z,34.65
2022-11-29T00:18:27.572Z,34.88
2022-11-29T00:23:24.259Z,30.20
2022-11-29T00:25:52.010Z,33.80
2022-11-29T00:28:19.754Z,34.17
2022-11-29T00:30:47.589Z,33.47
2022-11-29T00:33:15.322Z,33.95
2022-11-29T00:35:43.151Z,33.78
2022-11-29T00:38:10.869Z,32.97
2022-11-29T00:43:07.499Z,31.42
2022-11-29T00:45:35.391Z,33.05
2022-11-29T00:48:03.162Z,34.25
2022-11-29T00:50:30.898Z,34.03
2022-11-29T00:52:58.633Z,32.53
2022-11-29T00:55:26.489Z,32.30
2022-11-29T01:00:23.188Z,29.92
2022-11-29T01:02:50.921Z,31.42
2022-11-29T01:07:46.292Z,30.02
2022-11-29T01:10:14.203Z,28.67
2022-11-29T01:12:42.033Z,28.88
2022-11-29T01:15:10.770Z,28.13
2022-11-29T01:17:40.509Z,27.40
2022-11-29T01:20:09.430Z,30.40
2022-11-29T01:22:37.451Z,28.40
2022-11-29T01:25:05.777Z,26.27
2022-11-29T01:27:33.678Z,26.75
2022-11-29T01:30:01.447Z,26.90
2022-11-29T01:32:29.164Z,25.52
2022-11-29T01:34:58.355Z,25.60
2022-11-29T01:37:26.090Z,23.30
2022-11-29T01:42:21.608Z,24.60
2022-11-29T01:45:01.704Z,24.02
2022-11-29T01:47:30.064Z,23.27
2022-11-29T01:49:59.830Z,21.90
2022-11-29T01:52:29.660Z,23.90
2022-11-29T01:54:58.508Z,23.67
2022-11-29T01:57:26.537Z,24.45
2022-11-29T01:59:58.169Z,23.20
2022-11-29T02:02:31.352Z,23.50
2022-11-29T02:05:01.485Z,22.58
2022-11-29T02:07:29.294Z,21.73
2022-11-29T02:09:57.056Z,21.85
2022-11-29T02:12:29.846Z,23.65
2022-11-29T02:15:06.910Z,23.30
2022-11-29T02:17:39.765Z,22.95
2022-11-29T02:20:26.640Z,23.00
2022-11-29T02:22:57.759Z,22.92
2022-11-29T02:25:30.923Z,23.55
2022-11-29T02:28:27.019Z,21.90
2022-11-29T02:30:58.821Z,22.60
2022-11-29T02:33:47.745Z,20.63
2022-11-29T02:38:52.036Z,19.83
2022-11-29T02:41:28.600Z,22.33
2022-11-29T02:44:15.219Z,21.58
2022-11-29T02:46:49.304Z,20.05
2022-11-29T02:49:24.430Z,20.58
2022-11-29T02:51:55.993Z,23.20
2022-11-29T02:54:27.625Z,19.60
2022-11-29T02:56:57.912Z,20.88
2022-11-29T02:59:34.249Z,22.25
2022-11-29T03:02:04.520Z,21.23
2022-11-29T03:04:34.872Z,21.00
2022-11-29T03:07:05.365Z,21.52
2022-11-29T03:09:37.547Z,22.75
2022-11-29T03:12:10.296Z,22.17
2022-11-29T03:14:43.565Z,21.95
2022-11-29T03:17:18.358Z,18.70
2022-11-29T03:19:56.627Z,20.25
2022-11-29T03:24:55.985Z,20.60
2022-11-29T03:27:29.562Z,20.63
2022-11-29T03:29:58.862Z,21.70
2022-11-29T03:32:30.809Z,21.50
2022-11-29T03:35:03.393Z,21.88
2022-11-29T03:37:36.365Z,19.52
2022-11-29T03:40:06.672Z,18.90
2022-11-29T03:42:36.519Z,22.08
2022-11-29T03:45:05.928Z,19.75
2022-11-29T03:47:36.475Z,22.27
2022-11-29T03:50:06.102Z,21.10
2022-11-29T03:52:35.954Z,21.00
2022-11-29T03:55:13.221Z,19.17
2022-11-29T03:57:46.346Z,22.15
2022-11-29T04:00:14.904Z,23.27
2022-11-29T04:03:00.929Z,20.05
2022-11-29T04:05:52.558Z,21.15
2022-11-29T04:08:46.408Z,22.15
2022-11-29T04:11:29.026Z,19.55
2022-11-29T04:14:06.844Z,22.08
2022-11-29T04:17:05.545Z,20.95
2022-11-29T04:19:43.174Z,25.00
2022-11-29T04:22:21.475Z,21.08
2022-11-29T04:27:30.657Z,21.27
2022-11-29T04:30:16.252Z,19.25
2022-11-29T04:33:16.814Z,21.13
2022-11-29T04:36:04.819Z,22.63
2022-11-29T04:38:53.603Z,21.33
2022-11-29T04:41:43.349Z,23.50
2022-11-29T04:44:22.112Z,19.38
2022-11-29T04:46:58.862Z,22.40
2022-11-29T04:49:40.479Z,20.80
2022-11-29T04:52:17.962Z,22.50
2022-11-29T04:54:48.326Z,21.88
2022-11-29T04:57:22.261Z,21.77
2022-11-29T04:59:52.664Z,20.17
2022-11-29T05:02:29.875Z,21.20
2022-11-29T05:05:02.053Z,20.80
2022-11-29T05:07:34.340Z,23.08
2022-11-29T05:10:07.288Z,19.55
2022-11-29T05:12:39.007Z,20.20
2022-11-29T05:15:18.474Z,20.30
2022-11-29T05:17:54.167Z,20.20
2022-11-29T05:20:32.751Z,19.05
2022-11-29T05:23:12.982Z,17.77
2022-11-29T05:25:43.607Z,17.77
2022-11-29T05:28:16.420Z,18.67
2022-11-29T05:31:01.881Z,17.58
2022-11-29T05:33:37.291Z,37.30
2022-11-29T05:36:07.901Z,20.13
2022-11-29T05:38:50.462Z,20.38
2022-11-29T05:41:25.958Z,17.10
2022-11-29T05:44:00.407Z,19.40
2022-11-29T05:46:30.424Z,20.33
2022-11-29T05:49:02.389Z,22.23
2022-11-29T05:51:35.018Z,20.98
2022-11-29T05:54:08.997Z,18.77
2022-11-29T05:56:48.472Z,21.20
2022-11-29T05:59:19.019Z,22.13
2022-11-29T06:01:51.276Z,20.48
2022-11-29T06:04:21.543Z,24.88
2022-11-29T06:06:51.949Z,23.13
2022-11-29T06:09:23.043Z,23.65
2022-11-29T06:11:54.683Z,22.58
2022-11-29T06:14:29.870Z,23.38
2022-11-29T06:17:06.653Z,23.88
2022-11-29T06:19:53.101Z,26.40
2022-11-29T06:22:27.925Z,25.23
2022-11-29T06:25:03.466Z,24.52
2022-11-29T06:27:48.277Z,22.17
2022-11-29T06:30:17.113Z,53.15
2022-11-29T06:32:48.826Z,107.88
2022-11-29T06:35:25.249Z,27.88
2022-11-29T06:37:53.694Z,23.98
2022-11-29T06:40:21.635Z,21.67
2022-11-29T06:42:51.149Z,21.13
2022-11-29T06:45:19.235Z,22.58
2022-11-29T06:47:47.820Z,20.88
2022-11-29T06:50:23.811Z,22.08
2022-11-29T06:52:58.348Z,22.50
2022-11-29T06:55:29.488Z,24.70
2022-11-29T06:58:04.237Z,23.88
2022-11-29T07:00:37.422Z,24.52
2022-11-29T07:03:20.906Z,22.52
2022-11-29T07:05:49.097Z,20.52
2022-11-29T07:08:18.760Z,23.15
2022-11-29T07:10:49.547Z,21.52
2022-11-29T07:13:19.792Z,21.27
2022-11-29T07:15:51.279Z,21.63
2022-11-29T07:18:25.571Z,20.38
2022-11-29T07:21:00.341Z,21.45
2022-11-29T07:23:33.031Z,22.55
2022-11-29T07:26:04.841Z,21.45
2022-11-29T07:28:40.591Z,20.10
2022-11-29T07:31:11.784Z,20.88
2022-11-29T07:33:45.146Z,20.73
2022-11-29T07:36:15.586Z,23.10
2022-11-29T07:38:50.535Z,21.52
2022-11-29T07:41:25.159Z,22.67
2022-11-29T07:44:03.212Z,20.83
2022-11-29T07:46:31.472Z,21.95
2022-11-29T07:48:59.205Z,19.35
2022-11-29T07:53:54.455Z,21.23
2022-11-29T07:58:49.818Z,17.83
2022-11-29T08:01:19.018Z,19.23
2022-11-29T08:03:46.961Z,23.15
2022-11-29T08:06:14.741Z,23.15
2022-11-29T08:08:44.415Z,21.50
2022-11-29T08:11:12.548Z,26.27
2022-11-29T08:13:40.315Z,22.85
2022-11-29T08:16:08.702Z,23.10
2022-11-29T08:18:38.494Z,23.25
2022-11-29T08:21:06.770Z,22.02
2022-11-29T08:23:34.939Z,26.05
2022-11-29T08:26:03.083Z,21.50
2022-11-29T08:28:30.833Z,22.85
2022-11-29T08:31:01.897Z,24.73
2022-11-29T08:33:29.860Z,21.73
2022-11-29T08:36:04.758Z,21.90
2022-11-29T08:38:32.503Z,25.33
2022-11-29T08:41:01.541Z,23.17
2022-11-29T08:43:29.623Z,22.23
2022-11-29T08:45:57.468Z,20.90
2022-11-29T08:48:25.493Z,23.70
2022-11-29T08:50:54.151Z,24.38
2022-11-29T08:53:40.984Z,25.63
2022-11-29T08:56:41.580Z,24.88
2022-11-29T08:58:57.133Z,22.08
2022-11-29T09:01:24.868Z,23.27
2022-11-29T09:04:02.908Z,23.85
2022-11-29T09:06:31.606Z,25.58
2022-11-29T09:09:02.040Z,30.00
2022-11-29T09:11:30.461Z,24.75
2022-11-29T09:13:59.785Z,24.48
2022-11-29T09:16:29.233Z,23.75
2022-11-29T09:18:57.466Z,23.85
2022-11-29T09:21:26.292Z,26.13
2022-11-29T09:23:58.804Z,24.83
2022-11-29T09:26:29.260Z,24.30
2022-11-29T09:28:58.059Z,27.73
2022-11-29T09:31:27.205Z,24.90
2022-11-29T09:33:55.451Z,24.85
2022-11-29T09:36:28.063Z,27.67
2022-11-29T09:38:56.477Z,25.33
2022-11-29T09:43:56.521Z,22.17
2022-11-29T09:46:32.826Z,23.45
2022-11-29T09:49:07.114Z,25.02
2022-11-29T09:51:42.754Z,27.58
2022-11-29T09:54:22.039Z,22.95
2022-11-29T09:56:51.409Z,23.50
2022-11-29T09:59:23.401Z,24.98
2022-11-29T10:01:54.730Z,23.63
2022-11-29T10:04:23.834Z,22.65
2022-11-29T10:06:56.521Z,22.83
2022-11-29T10:09:29.539Z,23.48
2022-11-29T10:12:03.306Z,23.50
2022-11-29T10:14:34.791Z,25.88
2022-11-29T10:17:05.884Z,24.90
2022-11-29T10:19:36.476Z,24.25
2022-11-29T10:22:06.157Z,24.67
2022-11-29T10:24:34.543Z,22.02
2022-11-29T10:27:02.357Z,26.83
2022-11-29T10:29:30.150Z,29.55
2022-11-29T10:32:09.980Z,26.52
2022-11-29T10:34:38.171Z,26.95
2022-11-29T10:39:42.382Z,37.13
2022-11-29T10:42:34.576Z,25.90
2022-11-29T10:45:03.038Z,24.63
2022-11-29T10:47:32.386Z,27.13
2022-11-29T10:50:00.756Z,30.42
2022-11-29T10:52:28.490Z,27.83
2022-11-29T10:57:24.212Z,26.23
2022-11-29T11:00:00.243Z,29.88
2022-11-29T11:02:28.787Z,26.85
2022-11-29T11:04:57.968Z,29.13
2022-11-29T11:07:26.613Z,29.48
2022-11-29T11:09:55.731Z,29.35
2022-11-29T11:12:24.699Z,28.48
2022-11-29T11:14:52.623Z,27.85
2022-11-29T11:17:25.860Z,27.98
2022-11-29T11:19:59.011Z,29.15
2022-11-29T11:22:27.432Z,29.35
2022-11-29T11:25:00.138Z,25.52
2022-11-29T11:27:31.657Z,26.40
2022-11-29T11:29:59.760Z,30.30
2022-11-29T11:32:28.068Z,31.83
2022-11-29T11:34:56.448Z,28.60
2022-11-29T11:37:27.196Z,31.00
2022-11-29T11:39:56.951Z,35.50
2022-11-29T11:42:39.620Z,35.40
2022-11-29T11:45:25.781Z,35.70
2022-11-29T11:47:55.071Z,33.83
2022-11-29T11:50:28.295Z,30.83
2022-11-29T11:52:58.774Z,30.02
2022-11-29T11:55:30.675Z,30.70
2022-11-29T11:58:03.380Z,33.00
2022-11-29T12:03:30.057Z,30.77
2022-11-29T12:06:00.514Z,31.83
2022-11-29T12:08:30.558Z,31.55
2022-11-29T12:11:07.017Z,33.17
2022-11-29T12:13:37.910Z,32.42
2022-11-29T12:16:08.908Z,32.35
2022-11-29T12:18:39.304Z,31.00
2022-11-29T12:21:13.047Z,32.60
2022-11-29T12:23:45.560Z,36.40
2022-11-29T12:26:34.537Z,34.05
2022-11-29T12:29:02.942Z,36.03
2022-11-29T12:31:37.927Z,33.10
2022-11-29T12:34:11.546Z,32.90
2022-11-29T12:36:45.572Z,35.05
2022-11-29T12:39:22.445Z,36.63
2022-11-29T12:41:54.704Z,32.90
2022-11-29T12:44:28.158Z,45.10
2022-11-29T12:47:34.183Z,34.92
2022-11-29T12:49:48.944Z,33.47
2022-11-29T12:52:19.185Z,31.48
2022-11-29T12:54:56.079Z,31.05
2022-11-29T12:57:27.742Z,34.70
2022-11-29T13:00:07.178Z,32.88
2022-11-29T13:02:49.799Z,32.78
2022-11-29T13:05:25.280Z,34.08
2022-11-29T13:08:00.802Z,43.75
2022-11-29T13:10:34.486Z,35.85
2022-11-29T13:13:04.958Z,34.03
2022-11-29T13:15:38.191Z,33.05
2022-11-29T13:18:07.553Z,34.45
2022-11-29T13:20:39.715Z,31.33
2022-11-29T13:23:12.963Z,34.00
2022-11-29T13:25:43.267Z,32.97
2022-11-29T13:28:16.867Z,34.28
2022-11-29T13:30:44.749Z,37.45
2022-11-29T13:33:16.253Z,36.63
2022-11-29T13:35:47.492Z,35.80
2022-11-29T13:38:19.381Z,51.10
2022-11-29T13:40:53.263Z,34.97
2022-11-29T13:43:23.443Z,38.60
2022-11-29T13:45:54.694Z,33.28
2022-11-29T13:48:27.982Z,33.17
2022-11-29T13:50:56.817Z,32.03
2022-11-29T13:53:25.378Z,32.08
2022-11-29T13:56:00.701Z,33.72
2022-11-29T13:58:36.310Z,33.08
2022-11-29T14:01:07.272Z,34.15
2022-11-29T14:03:37.010Z,36.80
2022-11-29T14:06:09.726Z,33.35
2022-11-29T14:09:10.268Z,31.65
2022-11-29T14:11:30.116Z,31.27
2022-11-29T14:14:01.798Z,33.72
2022-11-29T14:16:31.693Z,33.50
2022-11-29T14:19:20.605Z,42.72
2022-11-29T14:24:35.285Z,32.75
2022-11-29T14:27:34.854Z,33.67
2022-11-29T14:30:02.752Z,37.10
2022-11-29T14:32:33.107Z,34.22
2022-11-29T14:35:04.209Z,31.98
2022-11-29T14:37:38.637Z,34.05
2022-11-29T14:40:14.369Z,35.40
2022-11-29T14:42:49.152Z,32.50
2022-11-29T14:45:24.492Z,32.55
2022-11-29T14:47:52.346Z,31.85
2022-11-29T14:50:29.941Z,33.28
2022-11-29T14:52:58.379Z,31.02
2022-11-29T14:55:30.670Z,34.15
2022-11-29T14:58:13.932Z,53.88
2022-11-29T15:00:53.643Z,34.58
2022-11-29T15:03:25.567Z,34.05
2022-11-29T15:05:56.878Z,33.25
2022-11-29T15:08:30.189Z,34.55
2022-11-29T15:11:00.509Z,33.53
2022-11-29T15:13:31.710Z,40.00
2022-11-29T15:16:14.897Z,39.33
2022-11-29T15:18:54.510Z,40.50
2022-11-29T15:21:29.997Z,39.15
2022-11-29T15:23:59.480Z,40.80
2022-11-29T15:26:27.205Z,41.55
2022-11-29T15:28:55.135Z,39.83
2022-11-29T15:31:24.350Z,42.78
2022-11-29T15:33:52.117Z,40.72
2022-11-29T15:38:48.236Z,41.13
2022-11-29T15:41:20.632Z,43.20
2022-11-29T15:43:49.818Z,43.65
2022-11-29T15:46:19.979Z,43.95
2022-11-29T15:48:49.210Z,42.20
2022-11-29T15:51:21.402Z,43.22
2022-11-29T15:53:53.972Z,44.10
2022-11-29T15:56:33.632Z,41.00
2022-11-29T15:59:03.153Z,39.53
2022-11-29T16:01:31.044Z,43.10
2022-11-29T16:04:00.356Z,42.80
2022-11-29T16:06:29.701Z,45.40
2022-11-29T16:08:57.592Z,54.90
2022-11-29T16:11:27.794Z,44.80
2022-11-29T16:14:04.504Z,43.42
2022-11-29T16:16:35.420Z,41.88
2022-11-29T16:19:12.233Z,45.47
2022-11-29T16:21:40.878Z,41.92
2022-11-29T16:24:12.524Z,44.92
2022-11-29T16:26:42.882Z,43.22
2022-11-29T16:29:21.207Z,43.58
2022-11-29T16:34:22.583Z,42.88
2022-11-29T16:37:01.053Z,46.92
2022-11-29T16:39:29.350Z,43.70
2022-11-29T16:42:06.436Z,42.15
2022-11-29T16:44:52.042Z,39.42
2022-11-29T16:47:21.246Z,43.35
2022-11-29T16:50:07.112Z,45.88
2022-11-29T16:52:35.489Z,40.95
2022-11-29T16:55:03.397Z,45.00
2022-11-29T16:57:31.241Z,44.85
2022-11-29T16:59:59.374Z,45.63
2022-11-29T17:02:29.363Z,46.92
2022-11-29T17:04:58.769Z,45.80
2022-11-29T17:07:28.821Z,47.67
2022-11-29T17:09:57.064Z,43.88
2022-11-29T17:12:24.789Z,81.78
2022-11-29T17:17:20.364Z,44.92
2022-11-29T17:19:48.063Z,41.97
2022-11-29T17:24:48.364Z,45.58
2022-11-29T17:27:16.481Z,44.03
2022-11-29T17:29:44.252Z,44.97
2022-11-29T17:32:12.071Z,44.97
2022-11-29T17:34:39.857Z,42.95
2022-11-29T17:39:35.191Z,41.72
2022-11-29T17:44:33.991Z,41.42
2022-11-29T17:47:01.852Z,41.75
2022-11-29T17:49:29.593Z,43.05
2022-11-29T17:54:24.917Z,43.55
2022-11-29T17:56:52.843Z,43.80
2022-11-29T17:59:20.601Z,43.67
2022-11-29T18:01:49.993Z,42.00
2022-11-29T18:04:17.921Z,44.83
2022-11-29T18:06:49.662Z,42.05
2022-11-29T18:09:18.668Z,42.92
2022-11-29T18:11:49.349Z,43.50
2022-11-29T18:14:18.881Z,59.50
2022-11-29T18:16:46.824Z,75.25
2022-11-29T18:19:16.748Z,47.67
2022-11-29T18:21:44.581Z,43.03
2022-11-29T18:24:12.507Z,43.38
2022-11-29T18:26:40.700Z,42.45
2022-11-29T18:29:09.050Z,41.90
2022-11-29T18:31:37.665Z,41.10
2022-11-29T18:34:09.668Z,40.95
2022-11-29T18:36:40.318Z,41.10
2022-11-29T18:39:09.742Z,45.55
2022-11-29T18:41:38.040Z,43.80
2022-11-29T18:44:06.914Z,42.95
2022-11-29T18:46:36.855Z,61.80
2022-11-29T18:49:05.253Z,47.08
2022-11-29T18:51:33.223Z,47.65
2022-11-29T18:54:02.636Z,43.45
2022-11-29T18:56:31.343Z,46.13
2022-11-29T18:59:00.025Z,44.67
2022-11-29T19:01:29.188Z,43.15
2022-11-29T19:03:58.480Z,43.40
2022-11-29T19:06:27.060Z,43.83
2022-11-29T19:08:55.057Z,42.05
2022-11-29T19:11:25.053Z,40.33
2022-11-29T19:13:53.935Z,43.72
2022-11-29T19:16:22.218Z,43.20
2022-11-29T19:18:51.396Z,40.58
2022-11-29T19:21:19.495Z,39.40
2022-11-29T19:23:51.979Z,39.50
2022-11-29T19:26:19.753Z,40.65
2022-11-29T19:31:17.104Z,42.13
2022-11-29T19:33:45.178Z,41.97
2022-11-29T19:36:14.125Z,40.13
2022-11-29T19:38:42.243Z,40.90
2022-11-29T19:41:10.565Z,41.90
2022-11-29T19:43:38.331Z,43.72
2022-11-29T19:46:09.712Z,44.17
2022-11-29T19:48:38.998Z,47.80
2022-11-29T19:51:07.201Z,43.72
2022-11-29T19:53:35.313Z,45.22
2022-11-29T19:56:04.788Z,43.85
2022-11-29T19:58:32.738Z,44.47
2022-11-29T20:01:05.233Z,46.55
2022-11-29T20:03:33.041Z,49.72
2022-11-29T20:06:02.500Z,44.50
2022-11-29T20:08:30.420Z,43.70
2022-11-29T20:11:05.326Z,42.78
2022-11-29T20:13:33.196Z,43.15
2022-11-29T20:16:02.584Z,41.30
2022-11-29T20:18:31.271Z,44.40
2022-11-29T20:21:05.042Z,40.20
2022-11-29T20:23:33.287Z,39.05
2022-11-29T20:26:01.028Z,39.28
2022-11-29T20:30:56.932Z,36.13
2022-11-29T20:33:25.296Z,36.85
2022-11-29T20:35:58.327Z,38.65
2022-11-29T20:38:32.454Z,38.70
2022-11-29T20:41:03.152Z,38.97
2022-11-29T20:43:36.455Z,36.97
2022-11-29T20:46:04.449Z,36.72
2022-11-29T20:48:32.399Z,36.40
2022-11-29T20:51:01.145Z,38.20
2022-11-29T20:53:34.085Z,36.50
2022-11-29T20:56:01.892Z,37.55
2022-11-29T20:58:30.014Z,44.33
2022-11-29T21:00:58.453Z,35.00
2022-11-29T21:03:26.548Z,34.13
2022-11-29T21:05:54.925Z,36.63
2022-11-29T21:08:23.636Z,34.45
2022-11-29T21:10:52.823Z,34.55
2022-11-29T21:13:22.292Z,35.33
2022-11-29T21:15:50.326Z,38.08
2022-11-29T21:18:21.600Z,36.70
2022-11-29T21:20:53.580Z,34.50
2022-11-29T21:23:23.858Z,35.33
2022-11-29T21:25:57.476Z,34.53
2022-11-29T21:28:29.932Z,35.03
2022-11-29T21:30:57.955Z,34.95
2022-11-29T21:33:25.979Z,34.45
2022-11-29T21:35:55.802Z,35.50
2022-11-29T21:38:24.201Z,33.83
2022-11-29T21:40:53.676Z,34.55
2022-11-29T21:43:32.710Z,37.08
2022-11-29T21:46:09.216Z,35.28
2022-11-29T21:48:37.838Z,35.65
2022-11-29T21:51:06.655Z,35.47
2022-11-29T21:53:34.698Z,33.47
2022-11-29T21:56:06.641Z,34.63
2022-11-29T21:58:35.608Z,34.13
2022-11-29T22:01:07.027Z,34.28
2022-11-29T22:03:35.039Z,33.65
2022-11-29T22:06:03.756Z,34.35
2022-11-29T22:08:33.929Z,33.85
2022-11-29T22:11:04.110Z,35.25
2022-11-29T22:13:32.084Z,34.13
2022-11-29T22:16:09.406Z,36.38
2022-11-29T22:18:37.752Z,32.30
2022-11-29T22:21:10.939Z,34.47
2022-11-29T22:23:38.689Z,35.40
2022-11-29T22:28:35.751Z,33.70
2022-11-29T22:31:04.586Z,36.92
2022-11-29T22:33:32.343Z,36.35
2022-11-29T22:36:03.056Z,34.03
2022-11-29T22:38:30.822Z,33.42
2022-11-29T22:43:26.310Z,32.05
2022-11-29T22:45:55.448Z,33.10
2022-11-29T22:48:23.201Z,34.10
2022-11-29T22:53:18.614Z,33.00
2022-11-29T22:58:13.836Z,33.75
2022-11-29T23:03:13.331Z,35.28
2022-11-29T23:05:41.058Z,35.28
2022-11-29T23:10:36.298Z,35.60
2022-11-29T23:15:31.728Z,37.55
2022-11-29T23:17:59.505Z,33.47
2022-11-29T23:22:56.491Z,38.03
2022-11-29T23:25:24.188Z,34.22
2022-11-29T23:30:21.716Z,38.42
2022-11-29T23:35:17.094Z,38.67
2022-11-29T23:37:45.108Z,34.53
2022-11-29T23:40:15.088Z,37.45
2022-11-29T23:42:47.006Z,37.50
2022-11-29T23:45:15.069Z,33.55
2022-11-29T23:47:42.809Z,37.25
2022-11-29T23:52:38.419Z,34.30
2022-11-29T23:57:37.761Z,37.88
